x

Nantucket Sound (44020) Wave Buoy

6:50am - Mon 20th Oct 2014 All times are EDT. -4 hours from GMT.

  • Sig Wave height 2.0ft
  • Swell Direction
  • Peak Period 3s
  • Average Period 3s
  • Wind
    20mph, 25mph gusts
  • Sea Temp 60°f
  • Air Temp 45°f
  • Sea Pressure 1016.9mb
  • Nantucket Sound
  • Nantucket Sound

More Historic Weather Station data

Upgrade to MSW Pro to gain access to the past 30 days of data for over 8000 Wavebouys and Weather Stations around the globe.

Join Pro

Comparision Forecast

View Surf forecast
   
Mon 10/20 6:50am 2ft 3s 3s 20 25 mph 1016.9mb 60f 45f
5:50am 2.5ft 4s 3s 20 25 mph 1016mb 60f 45f
4:50am 2.5ft 4s 3s 20 25 mph 1015.6mb 60f 45f
3:50am 2.5ft 4s 4s 22 29 mph 1015.1mb 60f 46f
2:50am 3ft 4s 4s 20 27 mph 1014.5mb 60f 47f
1:50am 2.5ft 4s 4s 22 27 mph 1014.2mb 61f 47f
12:50am 2.5ft 3s  -  22 27 mph 1013.6mb 61f 48f
Sun 10/19 10:50pm 3ft 4s 4s 20 27 mph 1012.7mb 61f 50f
9:50pm 3.5ft 4s 4s 22 29 mph 1012.2mb 62f 51f
8:50pm 3ft 4s 4s 27 31 mph 1011.5mb 62f 51f
7:50pm 3.5ft 4s 4s 27 34 mph 1010.7mb 62f 53f
6:50pm 2.5ft 4s 4s 22 29 mph 1009.7mb 62f 53f
5:50pm 2.5ft 4s 3s 22 29 mph 1008.7mb 62f 54f
4:50pm 2.5ft 3s 3s 22 27 mph 1008mb 62f 54f
3:50pm 2.5ft 4s 4s 18 25 mph 1007.6mb 62f 54f
2:50pm 2.5ft 4s 4s 20 22 mph 1007.3mb 62f 54f
1:50pm 2.5ft 4s 4s 20 27 mph 1007.1mb 62f 53f
12:50pm 3ft 4s 4s 18 22 mph 1006.7mb 62f 53f
11:50am 3ft 4s 4s 20 27 mph 1006.3mb 62f 53f
10:50am 2ft 3s 3s 20 25 mph 1006.8mb 62f 55f
9:50am 1.6ft 3s 4s 16 20 mph 1006.8mb 62f 56f
8:50am 2ft 3s 3s 16 18 mph 1006.7mb 62f 56f
7:50am 2ft 3s 3s 18 22 mph 1006mb 62f 57f
6:50am 1.6ft 3s 3s 20 22 mph 1004.9mb 62f 57f
5:50am 1.6ft 3s 3s 18 20 mph 1004.2mb 63f 58f
4:50am 2ft 3s 3s 16 18 mph 1003.6mb 63f 58f
3:50am 1.6ft 3s 3s 18 22 mph 1003.1mb 63f 59f
2:50am 2.5ft 3s 3s 18 22 mph 1003.1mb 63f 60f
1:50am 2ft 4s 4s 18 20 mph 1002.9mb 63f 60f
12:50am 2ft 4s 4s 16 20 mph 1002.8mb 63f 61f
Sat 10/18 11:50pm 2.5ft 4s 4s 18 20 mph 1002.4mb 63f 62f
10:50pm 2.5ft 4s 4s 18 22 mph 1002.1mb 63f 62f
9:50pm 2ft 4s 4s 16 18 mph 1001.8mb 63f 63f
8:50pm 2ft 4s 4s 20 25 mph 1001.2mb 63f 64f
7:50pm 2.5ft 3s 3s 22 25 mph 1000.5mb 63f 64f
6:50pm 1.6ft 3s 3s 20 22 mph 1000.1mb 64f 64f
5:50pm 1.6ft 3s 3s 16 20 mph 999.7mb 64f 64f
4:50pm 1.3ft 4s 3s 13 18 mph 999.5mb 64f 65f
3:50pm 1.3ft 3s 3s 13 16 mph 999.8mb 64f 65f
2:50pm 1.3ft 5s 4s 11 13 mph 1000.3mb 64f 65f
1:50pm 1.3ft 4s 4s 11 13 mph 1000.7mb 64f 64f
12:50pm 1.3ft 4s 4s 11 13 mph 1001.1mb 64f 64f
11:50am 1.3ft 5s 4s 11 13 mph 1002.2mb 64f 64f
10:50am 1.6ft 6s 4s 11 13 mph 1002.5mb 63f 64f
9:50am 1.6ft 15s 4s 9 11 mph 1003.2mb 63f 64f
8:50am 1.6ft 5s 4s 9 13 mph 1003.3mb 63f 64f
7:50am 1.6ft 6s 4s 11 13 mph 1003.7mb 63f 64f
6:50am 1.6ft 6s 4s 13 16 mph 1003.2mb 63f 63f
5:50am 1.6ft 4s 4s 13 18 mph 1004mb 63f 63f
4:50am 1.3ft 4s 3s 13 16 mph 1004.4mb 63f 63f
3:50am 1.3ft 3s 3s 13 16 mph 1004.7mb 63f 63f
2:50am 1.3ft 3s 3s 13 16 mph 1004.9mb 63f 63f
1:50am 1.3ft 5s 3s 13 16 mph 1005.5mb 63f 63f
12:50am 1.6ft 5s 3s 13 18 mph 1005.8mb 63f 64f
Fri 10/17 11:50pm 1.6ft 11s 4s 13 16 mph 1005.9mb 63f 63f
10:50pm 1.6ft 11s 4s 13 18 mph 1006.2mb 63f 63f
9:50pm 2ft 11s 4s 13 16 mph 1006.3mb 63f 63f
8:50pm 2ft 3s 4s 16 20 mph 1006.5mb 63f 64f
7:50pm 2ft 3s 4s 20 22 mph 1006.2mb 63f 64f
6:50pm 2ft 4s 3s 18 22 mph 1006.2mb 63f 63f
5:50pm 2ft 3s 3s 20 22 mph 1005.9mb 63f 64f
4:50pm 2ft 3s 3s 20 25 mph 1005.6mb 63f 64f
3:50pm 2.5ft 4s 3s 20 25 mph 1005.8mb 63f 64f
2:50pm 2.5ft 4s 3s 20 22 mph 1005.7mb 63f 64f
1:50pm 2.5ft 4s 3s 22 27 mph 1005.3mb 63f 64f
12:50pm 2.5ft 4s 4s 22 27 mph 1005.1mb 63f 63f
11:50am 2.5ft 4s 4s 22 27 mph 1005.5mb 63f 63f
10:50am 2.5ft 4s 4s 22 27 mph 1004.9mb 63f 63f
9:50am 2ft 3s 4s 20 25 mph 1005mb 63f 63f
8:50am 1.6ft 9s 4s 18 20 mph 1004.7mb 63f 64f
7:50am 1.6ft 9s 4s 11 13 mph 1004.8mb 63f 63f
6:50am 1.6ft 5s 4s 11 13 mph 1003.8mb 63f 63f
5:50am 1.3ft 4s 4s 11
mph
1003.9mb 63f 62f
4:50am 1ft 4s 4s 11 13 mph 1003.6mb 63f 62f
3:50am 1ft 5s 4s 4 7 mph 1003.2mb 63f 62f
2:50am 1ft 4s 4s 7 9 mph 1005mb 62f 63f
1:50am 1ft 8s 4s 11 18 mph 1005.6mb 62f 63f
12:50am 1.3ft 6s 4s 7 9 mph 1005.7mb 63f 63f
Thu 10/16 11:50pm 1.3ft 8s 4s 9 11 mph 1006mb 63f 63f
10:50pm 1.6ft 3s 3s 13 16 mph 1006.8mb 63f 63f
9:50pm 1.6ft 5s 3s 13 16 mph 1007.1mb 63f 65f
8:50pm 2ft 4s 4s 16 18 mph 1007.8mb 63f 65f
7:50pm 2ft 4s 4s 13 16 mph 1006.9mb 63f 64f
6:50pm 2.5ft 5s 4s 16 18 mph 1007.6mb 63f 65f
5:50pm 3ft 4s 4s 11 13 mph 1008.4mb 63f 65f
4:50pm 3ft 4s 4s 20 25 mph 1007.9mb 63f 66f
3:50pm 2.5ft 4s 4s 25 29 mph 1008.1mb 63f 67f
2:50pm 2.5ft 4s 4s 20 25 mph 1008.8mb 63f 67f
1:50pm 2.5ft 4s 4s 20 22 mph 1009.6mb 63f 68f
12:50pm 2.5ft 4s 4s 18 20 mph 1010.6mb 63f 67f